createdAt,value
2023-05-18T00:00:06.843Z,19.05
2023-05-18T00:02:52.563Z,19.06
2023-05-18T00:05:38.998Z,19.02
2023-05-18T00:08:25.145Z,19.04
2023-05-18T00:11:11.512Z,19.04
2023-05-18T00:13:57.225Z,19.05
2023-05-18T00:16:43.146Z,19.02
2023-05-18T00:19:32.650Z,19.03
2023-05-18T00:22:21.038Z,19.03
2023-05-18T00:25:09.192Z,19.00
2023-05-18T00:27:56.227Z,19.00
2023-05-18T00:30:42.244Z,18.95
2023-05-18T00:33:29.129Z,18.97
2023-05-18T00:36:15.836Z,18.94
2023-05-18T00:39:01.781Z,18.89
2023-05-18T00:41:48.063Z,18.90
2023-05-18T00:44:33.940Z,18.88
2023-05-18T00:47:21.803Z,18.81
2023-05-18T00:50:08.130Z,18.82
2023-05-18T00:52:54.990Z,18.82
2023-05-18T00:55:41.110Z,18.82
2023-05-18T00:58:27.209Z,18.76
2023-05-18T01:01:13.371Z,18.80
2023-05-18T01:04:02.485Z,18.77
2023-05-18T01:06:56.603Z,18.76
2023-05-18T01:09:43.153Z,18.72
2023-05-18T01:12:37.966Z,18.69
2023-05-18T01:15:33.839Z,18.68
2023-05-18T01:18:38.450Z,18.65
2023-05-18T01:21:33.996Z,18.52
2023-05-18T01:24:29.587Z,18.54
2023-05-18T01:27:17.947Z,18.48
2023-05-18T01:30:08.318Z,18.50
2023-05-18T01:32:54.874Z,18.47
2023-05-18T01:35:48.813Z,18.43
2023-05-18T01:38:35.809Z,18.38
2023-05-18T01:41:27.161Z,18.33
2023-05-18T01:44:19.176Z,18.31
2023-05-18T01:47:04.997Z,18.32
2023-05-18T01:50:05.879Z,18.28
2023-05-18T01:53:01.081Z,18.23
2023-05-18T01:55:49.091Z,18.30
2023-05-18T01:58:39.570Z,18.27
2023-05-18T02:01:26.130Z,18.28
2023-05-18T02:04:12.623Z,18.32
2023-05-18T02:06:58.761Z,18.29
2023-05-18T02:09:45.174Z,18.34
2023-05-18T02:12:31.356Z,18.34
2023-05-18T02:15:17.321Z,18.32
2023-05-18T02:18:03.381Z,18.27
2023-05-18T02:20:51.207Z,18.25
2023-05-18T02:23:37.305Z,18.25
2023-05-18T02:26:23.303Z,18.18
2023-05-18T02:29:12.151Z,18.22
2023-05-18T02:31:58.211Z,18.17
2023-05-18T02:34:46.789Z,18.14
2023-05-18T02:37:35.533Z,18.11
2023-05-18T02:40:22.402Z,18.11
2023-05-18T02:43:08.379Z,18.08
2023-05-18T02:45:54.806Z,18.05
2023-05-18T02:48:45.669Z,17.98
2023-05-18T02:51:32.341Z,18.07
2023-05-18T02:54:19.648Z,18.05
2023-05-18T02:57:05.470Z,18.05
2023-05-18T03:00:00.657Z,18.01
2023-05-18T03:02:48.604Z,18.01
2023-05-18T03:05:35.184Z,17.99
2023-05-18T03:08:22.991Z,17.99
2023-05-18T03:11:08.979Z,17.99
2023-05-18T03:13:55.083Z,17.98
2023-05-18T03:16:41.236Z,17.91
2023-05-18T03:19:36.283Z,17.95
2023-05-18T03:22:22.495Z,17.91
2023-05-18T03:25:09.179Z,17.88
2023-05-18T03:27:55.534Z,17.86
2023-05-18T03:30:41.677Z,17.80
2023-05-18T03:33:28.348Z,17.80
2023-05-18T03:36:13.968Z,17.75
2023-05-18T03:39:00.206Z,17.73
2023-05-18T03:41:46.989Z,17.72
2023-05-18T03:44:33.688Z,17.67
2023-05-18T03:47:22.186Z,17.61
2023-05-18T03:50:09.010Z,17.62
2023-05-18T03:52:55.891Z,17.63
2023-05-18T03:55:41.944Z,17.60
2023-05-18T03:58:29.285Z,17.63
2023-05-18T04:01:18.867Z,17.62
2023-05-18T04:04:05.120Z,17.64
2023-05-18T04:06:51.764Z,17.62
2023-05-18T04:09:38.552Z,17.60
2023-05-18T04:12:24.397Z,17.57
2023-05-18T04:15:14.779Z,17.57
2023-05-18T04:18:02.294Z,17.50
2023-05-18T04:20:48.099Z,17.54
2023-05-18T04:23:39.121Z,17.51
2023-05-18T04:26:25.830Z,17.47
2023-05-18T04:29:13.504Z,17.43
2023-05-18T04:32:02.308Z,17.42
2023-05-18T04:34:49.740Z,17.41
2023-05-18T04:37:36.022Z,17.42
2023-05-18T04:40:22.818Z,17.40
2023-05-18T04:43:09.605Z,17.44
2023-05-18T04:45:55.860Z,17.45
2023-05-18T04:48:42.532Z,17.43
2023-05-18T04:51:28.642Z,17.44
2023-05-18T04:54:16.233Z,17.43
2023-05-18T04:57:03.763Z,17.44
2023-05-18T04:59:50.255Z,17.47
2023-05-18T05:02:36.434Z,17.44
2023-05-18T05:05:24.562Z,17.46
2023-05-18T05:08:10.816Z,17.37
2023-05-18T05:10:57.059Z,17.35
2023-05-18T05:13:43.170Z,17.43
2023-05-18T05:16:29.316Z,17.40
2023-05-18T05:19:16.915Z,17.38
2023-05-18T05:22:03.110Z,17.42
2023-05-18T05:24:48.988Z,17.35
2023-05-18T05:27:35.062Z,17.37
2023-05-18T05:30:21.983Z,17.20
2023-05-18T05:33:08.053Z,17.31
2023-05-18T05:35:54.902Z,17.31
2023-05-18T05:38:41.173Z,17.26
2023-05-18T05:41:27.699Z,17.26
2023-05-18T05:44:13.942Z,17.33
2023-05-18T05:47:00.592Z,17.35
2023-05-18T05:49:46.567Z,17.31
2023-05-18T05:52:32.835Z,17.39
2023-05-18T05:55:19.668Z,17.35
2023-05-18T05:58:05.725Z,17.37
2023-05-18T06:00:51.817Z,17.38
2023-05-18T06:03:39.148Z,17.42
2023-05-18T06:06:29.312Z,17.43
2023-05-18T06:09:16.118Z,17.42
2023-05-18T06:12:02.599Z,17.38
2023-05-18T06:14:48.691Z,17.40
2023-05-18T06:17:35.259Z,17.34
2023-05-18T06:20:21.192Z,17.27
2023-05-18T06:23:07.201Z,17.20
2023-05-18T06:26:16.823Z,17.20
2023-05-18T06:29:03.758Z,17.15
2023-05-18T06:31:56.053Z,17.13
2023-05-18T06:34:53.718Z,17.13
2023-05-18T06:37:40.049Z,17.13
2023-05-18T06:40:26.352Z,17.07
2023-05-18T06:43:12.672Z,17.05
2023-05-18T06:46:28.104Z,17.07
2023-05-18T06:49:17.642Z,17.05
2023-05-18T06:52:04.156Z,17.03
2023-05-18T06:54:51.719Z,17.02
2023-05-18T06:57:38.340Z,17.01
2023-05-18T07:00:24.823Z,17.02
2023-05-18T07:03:11.209Z,17.01
2023-05-18T07:05:57.505Z,17.04
2023-05-18T07:08:44.759Z,16.99
2023-05-18T07:11:30.911Z,17.02
2023-05-18T07:14:16.750Z,17.16
2023-05-18T07:17:04.094Z,17.13
2023-05-18T07:19:50.258Z,17.18
2023-05-18T07:22:36.415Z,17.12
2023-05-18T07:25:24.115Z,17.16
2023-05-18T07:28:11.142Z,17.17
2023-05-18T07:30:57.276Z,17.19
2023-05-18T07:33:45.176Z,17.22
2023-05-18T07:36:31.336Z,17.22
2023-05-18T07:39:19.484Z,17.19
2023-05-18T07:42:06.717Z,17.18
2023-05-18T07:44:54.112Z,17.18
2023-05-18T07:47:40.708Z,17.19
2023-05-18T07:50:26.858Z,17.17
2023-05-18T07:53:12.830Z,17.17
2023-05-18T07:55:58.705Z,17.14
2023-05-18T07:58:46.053Z,17.13
2023-05-18T08:01:32.252Z,17.15
2023-05-18T08:04:18.619Z,17.14
2023-05-18T08:07:05.047Z,17.08
2023-05-18T08:09:51.231Z,17.14
2023-05-18T08:12:37.388Z,17.09
2023-05-18T08:15:23.591Z,17.12
2023-05-18T08:18:09.620Z,17.16
2023-05-18T08:20:55.843Z,17.15
2023-05-18T08:23:41.996Z,17.14
2023-05-18T08:26:28.228Z,17.21
2023-05-18T08:29:14.277Z,17.19
2023-05-18T08:32:00.554Z,17.13
2023-05-18T08:34:46.957Z,17.09
2023-05-18T08:37:33.230Z,17.17
2023-05-18T08:40:19.107Z,17.18
2023-05-18T08:43:14.110Z,17.15
2023-05-18T08:46:30.008Z,17.16
2023-05-18T08:49:19.531Z,17.22
2023-05-18T08:52:05.886Z,17.17
2023-05-18T08:54:52.549Z,17.17
2023-05-18T08:57:39.704Z,17.09
2023-05-18T09:00:25.864Z,17.06
2023-05-18T09:03:12.588Z,17.05
2023-05-18T09:05:59.911Z,17.06
2023-05-18T09:08:46.745Z,17.05
2023-05-18T09:11:34.373Z,17.08
2023-05-18T09:14:23.161Z,17.03
2023-05-18T09:17:10.009Z,17.04
2023-05-18T09:19:56.140Z,16.99
2023-05-18T09:22:42.419Z,17.03
2023-05-18T09:25:30.485Z,17.00
2023-05-18T09:28:33.500Z,16.95
2023-05-18T09:31:30.894Z,16.99
2023-05-18T09:34:19.453Z,16.99
2023-05-18T09:37:06.386Z,16.95
2023-05-18T09:40:09.095Z,16.99
2023-05-18T09:42:55.948Z,16.94
2023-05-18T09:45:50.759Z,16.94
2023-05-18T09:48:44.484Z,16.90
2023-05-18T09:51:31.830Z,16.99
2023-05-18T09:54:17.889Z,16.99
2023-05-18T10:00:07.200Z,16.86
2023-05-18T10:02:53.544Z,16.88
2023-05-18T10:05:42.473Z,16.88
2023-05-18T10:08:28.375Z,16.83
2023-05-18T10:11:18.866Z,16.90
2023-05-18T10:14:05.213Z,16.87
2023-05-18T10:17:00.276Z,16.91
2023-05-18T10:19:56.091Z,16.89
2023-05-18T10:22:48.982Z,16.85
2023-05-18T10:25:38.589Z,16.91
2023-05-18T10:28:39.352Z,16.94
2023-05-18T10:31:26.599Z,16.94
2023-05-18T10:34:13.153Z,16.96
2023-05-18T10:37:04.146Z,16.93
2023-05-18T10:39:51.777Z,16.94
2023-05-18T10:42:38.585Z,16.93
2023-05-18T10:45:24.898Z,16.93
2023-05-18T10:48:11.234Z,16.99
2023-05-18T10:50:58.632Z,16.99
2023-05-18T10:53:47.751Z,17.00
2023-05-18T10:56:36.003Z,17.02
2023-05-18T10:59:25.296Z,17.04
2023-05-18T11:02:13.904Z,17.13
2023-05-18T11:05:00.094Z,17.14
2023-05-18T11:07:47.362Z,17.16
2023-05-18T11:10:35.346Z,17.18
2023-05-18T11:13:30.652Z,17.18
2023-05-18T11:16:17.435Z,17.22
2023-05-18T11:19:07.894Z,17.19
2023-05-18T11:21:54.356Z,17.19
2023-05-18T11:24:42.522Z,17.16
2023-05-18T11:27:29.148Z,17.13
2023-05-18T11:30:45.249Z,17.10
2023-05-18T11:33:31.299Z,17.12
2023-05-18T11:36:24.650Z,17.10
2023-05-18T11:39:13.519Z,17.06
2023-05-18T11:42:06.700Z,17.05
2023-05-18T11:44:56.403Z,17.02
2023-05-18T11:47:42.473Z,16.99
2023-05-18T11:50:30.577Z,17.01
2023-05-18T11:53:20.044Z,16.98
2023-05-18T11:56:06.655Z,17.01
2023-05-18T11:59:12.538Z,17.02
2023-05-18T12:02:00.680Z,17.04
2023-05-18T12:05:13.756Z,17.03
2023-05-18T12:08:00.458Z,17.00
2023-05-18T12:11:30.130Z,17.07
2023-05-18T12:14:18.568Z,17.12
2023-05-18T12:17:05.189Z,17.07
2023-05-18T12:19:51.563Z,17.11
2023-05-18T12:22:42.610Z,17.14
2023-05-18T12:25:28.549Z,17.14
2023-05-18T12:28:15.750Z,17.17
2023-05-18T12:31:07.259Z,17.19
2023-05-18T12:33:58.894Z,17.19
2023-05-18T12:36:53.919Z,17.19
2023-05-18T12:39:39.546Z,17.19
2023-05-18T12:42:25.579Z,17.16
2023-05-18T12:45:11.739Z,17.17
2023-05-18T12:48:15.325Z,17.15
2023-05-18T12:51:02.771Z,17.08
2023-05-18T12:53:51.021Z,17.13
2023-05-18T12:56:53.406Z,17.11
2023-05-18T12:59:47.980Z,17.19
2023-05-18T13:02:38.025Z,17.26
2023-05-18T13:05:24.697Z,17.24
2023-05-18T13:08:15.763Z,17.28
2023-05-18T13:11:12.683Z,17.38
2023-05-18T13:14:02.265Z,17.43
2023-05-18T13:16:51.277Z,17.40
2023-05-18T13:19:37.524Z,17.50
2023-05-18T13:22:23.754Z,17.50
2023-05-18T13:25:09.738Z,17.49
2023-05-18T13:27:56.494Z,17.59
2023-05-18T13:30:43.433Z,17.62
2023-05-18T13:33:29.550Z,17.67
2023-05-18T13:36:16.330Z,17.69
2023-05-18T13:39:05.604Z,17.71
2023-05-18T13:41:51.563Z,17.82
2023-05-18T13:44:37.948Z,17.83
2023-05-18T13:47:23.969Z,17.83
2023-05-18T13:50:10.510Z,17.80
2023-05-18T13:52:56.563Z,17.82
2023-05-18T13:55:42.611Z,17.77
2023-05-18T13:58:28.528Z,17.72
2023-05-18T14:01:18.010Z,17.67
2023-05-18T14:04:04.147Z,17.65
2023-05-18T14:06:49.984Z,17.65
2023-05-18T14:09:36.217Z,17.63
2023-05-18T14:12:21.984Z,17.59
2023-05-18T14:15:08.778Z,17.58
2023-05-18T14:17:55.322Z,17.56
2023-05-18T14:20:41.195Z,17.51
2023-05-18T14:23:30.130Z,17.50
2023-05-18T14:26:16.778Z,17.43
2023-05-18T14:29:06.059Z,17.47
2023-05-18T14:31:54.885Z,17.47
2023-05-18T14:34:40.861Z,17.43
2023-05-18T14:37:27.359Z,17.44
2023-05-18T14:40:13.548Z,17.40
2023-05-18T14:42:59.917Z,17.32
2023-05-18T14:45:50.545Z,17.29
2023-05-18T14:48:45.327Z,17.28
2023-05-18T14:51:31.330Z,17.25
2023-05-18T14:54:19.086Z,17.25
2023-05-18T14:57:05.562Z,17.22
2023-05-18T14:59:52.808Z,17.23
2023-05-18T15:02:39.002Z,17.15
2023-05-18T15:05:25.190Z,17.16
2023-05-18T15:08:11.084Z,17.09
2023-05-18T15:10:57.159Z,17.09
2023-05-18T15:13:44.156Z,17.06
2023-05-18T15:20:58.672Z,16.97
2023-05-18T15:23:55.342Z,16.94
2023-05-18T15:26:42.043Z,16.99
2023-05-18T15:29:28.125Z,16.98
2023-05-18T15:32:13.896Z,17.01
2023-05-18T15:35:01.309Z,17.03
2023-05-18T15:42:46.441Z,16.98
2023-05-18T15:45:32.623Z,16.98
2023-05-18T15:48:18.432Z,16.96
2023-05-18T15:51:04.414Z,16.95
2023-05-18T15:53:50.561Z,16.87
2023-05-18T15:56:43.802Z,16.86
2023-05-18T15:59:29.645Z,16.81
2023-05-18T16:02:15.822Z,16.86
2023-05-18T16:05:01.785Z,16.83
2023-05-18T16:07:47.709Z,16.82
2023-05-18T16:10:33.956Z,16.77
2023-05-18T16:13:22.724Z,16.79
2023-05-18T16:16:10.496Z,16.79
2023-05-18T16:18:56.584Z,16.71
2023-05-18T16:21:42.961Z,16.73
2023-05-18T16:24:29.317Z,16.74
2023-05-18T16:27:16.677Z,16.71
2023-05-18T16:30:03.444Z,16.68
2023-05-18T16:32:49.786Z,16.68
2023-05-18T16:35:35.847Z,16.73
2023-05-18T16:38:22.120Z,16.73
2023-05-18T16:41:08.219Z,16.70
2023-05-18T16:43:54.808Z,16.68
2023-05-18T16:46:40.744Z,16.72
2023-05-18T16:49:31.992Z,16.74
2023-05-18T16:52:18.580Z,16.73
2023-05-18T16:55:13.843Z,16.72
2023-05-18T16:58:00.068Z,16.73
2023-05-18T17:05:41.919Z,16.87
2023-05-18T17:08:28.044Z,16.80
2023-05-18T17:11:43.937Z,16.82
2023-05-18T17:14:29.936Z,16.81
2023-05-18T17:18:31.966Z,16.91
2023-05-18T17:21:18.332Z,16.93
2023-05-18T17:24:45.349Z,16.95
2023-05-18T17:27:32.143Z,16.91
2023-05-18T17:30:19.724Z,16.91
2023-05-18T17:33:38.200Z,16.87
2023-05-18T17:36:24.191Z,16.86
2023-05-18T17:39:10.528Z,16.88
2023-05-18T17:41:56.545Z,16.82
2023-05-18T17:44:42.484Z,16.86
2023-05-18T17:47:28.692Z,16.86
2023-05-18T17:50:15.431Z,16.83
2023-05-18T17:53:01.733Z,16.94
2023-05-18T17:55:47.966Z,16.95
2023-05-18T17:58:37.240Z,16.98
2023-05-18T18:01:23.535Z,16.99
2023-05-18T18:04:09.573Z,16.97
2023-05-18T18:06:56.112Z,16.98
2023-05-18T18:09:42.080Z,17.03
2023-05-18T18:12:27.877Z,17.04
2023-05-18T18:15:14.047Z,17.05
2023-05-18T18:18:03.600Z,17.01
2023-05-18T18:20:49.700Z,17.04
2023-05-18T18:23:36.919Z,17.10
2023-05-18T18:26:23.100Z,17.11
2023-05-18T18:29:09.040Z,17.15
2023-05-18T18:31:56.080Z,17.08
2023-05-18T18:34:44.444Z,17.17
2023-05-18T18:37:30.595Z,17.11
2023-05-18T18:40:20.027Z,17.10
2023-05-18T18:43:06.203Z,17.13
2023-05-18T18:45:52.456Z,17.13
2023-05-18T18:48:38.336Z,17.16
2023-05-18T18:51:24.687Z,17.17
2023-05-18T18:54:11.042Z,17.10
2023-05-18T18:56:57.046Z,17.15
2023-05-18T18:59:43.558Z,17.13
2023-05-18T19:02:29.734Z,17.01
2023-05-18T19:05:21.501Z,17.09
2023-05-18T19:08:07.692Z,17.05
2023-05-18T19:10:54.479Z,17.01
2023-05-18T19:13:40.621Z,17.01
2023-05-18T19:16:27.058Z,17.00
2023-05-18T19:19:13.440Z,16.92
2023-05-18T19:21:59.741Z,16.99
2023-05-18T19:24:47.131Z,16.98
2023-05-18T19:27:33.505Z,16.79
2023-05-18T19:30:21.617Z,16.93
2023-05-18T19:33:07.779Z,16.85
2023-05-18T19:35:54.522Z,16.79
2023-05-18T19:38:41.653Z,16.81
2023-05-18T19:41:27.878Z,16.69
2023-05-18T19:44:14.895Z,16.71
2023-05-18T19:47:07.645Z,16.69
2023-05-18T19:49:53.698Z,16.73
2023-05-18T19:52:39.525Z,16.62
2023-05-18T19:55:25.552Z,16.68
2023-05-18T19:58:14.179Z,16.71
2023-05-18T20:01:00.258Z,16.76
2023-05-18T20:03:47.277Z,16.72
2023-05-18T20:06:34.083Z,16.72
2023-05-18T20:09:39.842Z,16.76
2023-05-18T20:12:32.473Z,16.72
2023-05-18T20:15:26.665Z,16.71
2023-05-18T20:18:12.849Z,16.65
2023-05-18T20:20:59.061Z,16.69
2023-05-18T20:23:47.533Z,16.72
2023-05-18T20:26:34.311Z,16.82
2023-05-18T20:29:20.688Z,16.62
2023-05-18T20:32:26.264Z,16.73
2023-05-18T20:35:16.036Z,16.77
2023-05-18T20:38:04.784Z,16.77
2023-05-18T20:40:56.004Z,16.76
2023-05-18T20:43:42.036Z,16.80
2023-05-18T20:46:34.075Z,16.73
2023-05-18T20:49:25.244Z,16.70
2023-05-18T20:52:11.525Z,16.66
2023-05-18T20:54:57.957Z,16.68
2023-05-18T20:57:45.266Z,16.71
2023-05-18T21:00:33.320Z,16.67
2023-05-18T21:03:20.370Z,16.64
2023-05-18T21:06:06.684Z,16.54
2023-05-18T21:08:52.913Z,16.56
2023-05-18T21:11:38.907Z,16.55
2023-05-18T21:14:27.366Z,16.48
2023-05-18T21:17:15.362Z,16.36
2023-05-18T21:20:01.703Z,16.35
2023-05-18T21:22:47.824Z,16.14
2023-05-18T21:25:34.318Z,16.23
2023-05-18T21:28:21.853Z,16.23
2023-05-18T21:31:07.781Z,16.20
2023-05-18T21:33:54.859Z,16.18
2023-05-18T21:36:41.686Z,16.13
2023-05-18T21:39:28.835Z,16.08
2023-05-18T21:42:14.849Z,15.98
2023-05-18T21:45:01.128Z,15.91
2023-05-18T21:47:49.156Z,15.93
2023-05-18T21:50:35.802Z,15.95
2023-05-18T21:53:21.948Z,15.90
2023-05-18T21:56:08.077Z,15.92
2023-05-18T21:58:55.601Z,15.88
2023-05-18T22:01:41.609Z,15.84
2023-05-18T22:04:27.940Z,15.85
2023-05-18T22:07:14.808Z,15.87
2023-05-18T22:10:00.819Z,15.76
2023-05-18T22:12:46.970Z,15.74
2023-05-18T22:15:33.775Z,15.87
2023-05-18T22:18:19.742Z,15.79
2023-05-18T22:21:07.525Z,15.89
2023-05-18T22:23:56.754Z,15.89
2023-05-18T22:26:43.485Z,15.90
2023-05-18T22:29:29.686Z,15.88
2023-05-18T22:32:18.040Z,15.96
2023-05-18T22:35:04.786Z,15.92
2023-05-18T22:37:50.852Z,15.97
2023-05-18T22:40:36.787Z,16.02
2023-05-18T22:43:23.206Z,15.98
2023-05-18T22:46:11.135Z,16.06
2023-05-18T22:49:03.354Z,16.02
2023-05-18T22:51:50.139Z,15.94
2023-05-18T22:54:40.131Z,16.01
2023-05-18T22:57:33.020Z,15.88
2023-05-18T23:00:19.461Z,15.92
2023-05-18T23:03:05.541Z,15.95
2023-05-18T23:05:51.630Z,16.00
2023-05-18T23:08:37.746Z,15.95
2023-05-18T23:11:25.652Z,15.93
2023-05-18T23:14:12.162Z,16.06
2023-05-18T23:17:02.703Z,16.05
2023-05-18T23:19:50.313Z,15.88
2023-05-18T23:22:36.455Z,15.98
2023-05-18T23:25:22.839Z,16.08
2023-05-18T23:28:08.997Z,16.07
2023-05-18T23:30:55.096Z,15.99
2023-05-18T23:33:41.590Z,16.08
2023-05-18T23:36:30.717Z,16.15
2023-05-18T23:39:16.911Z,16.12
2023-05-18T23:42:03.712Z,16.14
2023-05-18T23:44:50.044Z,16.20
2023-05-18T23:47:36.434Z,16.19
2023-05-18T23:50:23.127Z,16.22
2023-05-18T23:53:11.205Z,16.25
2023-05-18T23:55:59.300Z,16.31
2023-05-18T23:58:46.583Z,16.25
